createdAt,value
2023-03-13T00:01:14.805Z,0.52
2023-03-13T00:03:43.748Z,0.50
2023-03-13T00:06:12.328Z,0.60
2023-03-13T00:08:40.928Z,0.63
2023-03-13T00:11:12.392Z,0.40
2023-03-13T00:13:43.100Z,0.40
2023-03-13T00:16:13.796Z,0.22
2023-03-13T00:18:47.130Z,0.35
2023-03-13T00:21:15.811Z,0.32
2023-03-13T00:23:44.080Z,0.20
2023-03-13T00:26:14.843Z,0.15
2023-03-13T00:28:46.092Z,0.17
2023-03-13T00:31:16.362Z,0.32
2023-03-13T00:33:47.291Z,0.20
2023-03-13T00:36:19.190Z,0.30
2023-03-13T00:38:47.748Z,0.30
2023-03-13T00:41:17.892Z,0.22
2023-03-13T00:43:48.498Z,0.20
2023-03-13T00:46:18.682Z,0.10
2023-03-13T00:48:48.021Z,0.20
2023-03-13T00:51:17.844Z,0.10
2023-03-13T00:53:47.884Z,0.15
2023-03-13T00:56:18.324Z,0.20
2023-03-13T00:58:49.862Z,0.22
2023-03-13T01:01:20.285Z,0.20
2023-03-13T01:03:51.147Z,0.15
2023-03-13T01:06:22.064Z,0.20
2023-03-13T01:08:50.958Z,0.40
2023-03-13T01:11:20.881Z,0.22
2023-03-13T01:13:51.456Z,0.22
2023-03-13T01:16:22.475Z,0.28
2023-03-13T01:18:53.129Z,0.20
2023-03-13T01:21:23.213Z,0.40
2023-03-13T01:23:53.107Z,0.50
2023-03-13T01:26:23.162Z,0.45
2023-03-13T01:28:53.057Z,0.60
2023-03-13T01:31:23.635Z,0.60
2023-03-13T01:33:56.497Z,0.70
2023-03-13T01:36:25.810Z,0.40
2023-03-13T01:38:55.755Z,0.73
2023-03-13T01:41:25.793Z,1.33
2023-03-13T01:43:56.734Z,0.88
2023-03-13T01:46:29.314Z,1.02
2023-03-13T01:49:17.121Z,1.67
2023-03-13T01:52:16.237Z,1.83
2023-03-13T01:55:12.595Z,1.83
2023-03-13T01:57:46.170Z,2.00
2023-03-13T02:00:20.994Z,2.35
2023-03-13T02:02:53.330Z,1.92
2023-03-13T02:05:25.269Z,1.33
2023-03-13T02:07:59.239Z,3.33
2023-03-13T02:10:29.642Z,2.15
2023-03-13T02:12:59.261Z,1.67
2023-03-13T02:15:30.372Z,2.45
2023-03-13T02:18:00.322Z,2.17
2023-03-13T02:20:28.914Z,4.13
2023-03-13T02:23:03.215Z,2.85
2023-03-13T02:25:40.711Z,3.03
2023-03-13T02:28:13.453Z,4.20
2023-03-13T02:30:45.322Z,3.63
2023-03-13T02:33:14.899Z,4.13
2023-03-13T02:35:44.591Z,5.35
2023-03-13T02:38:19.658Z,4.10
2023-03-13T02:40:51.349Z,4.07
2023-03-13T02:43:25.474Z,4.10
2023-03-13T02:46:09.468Z,3.38
2023-03-13T02:48:44.331Z,5.63
2023-03-13T02:51:17.955Z,4.82
2023-03-13T02:53:50.167Z,5.28
2023-03-13T02:56:23.022Z,3.20
2023-03-13T02:58:51.662Z,4.00
2023-03-13T03:01:23.793Z,4.75
2023-03-13T03:03:53.261Z,3.92
2023-03-13T03:08:51.186Z,4.18
2023-03-13T03:11:21.381Z,2.47
2023-03-13T03:13:55.676Z,2.70
2023-03-13T03:16:24.713Z,1.10
2023-03-13T03:21:21.448Z,0.70
2023-03-13T03:23:50.179Z,0.50
2023-03-13T03:26:18.676Z,1.38
2023-03-13T03:28:48.953Z,0.20
2023-03-13T03:31:19.207Z,0.20
2023-03-13T03:33:50.194Z,0.20
2023-03-13T03:36:22.443Z,0.17
2023-03-13T03:38:51.607Z,0.30
2023-03-13T03:41:24.451Z,0.40
2023-03-13T03:46:25.986Z,0.35
2023-03-13T03:48:55.026Z,0.20
2023-03-13T03:51:23.771Z,0.10
2023-03-13T03:53:52.279Z,0.30
2023-03-13T03:58:55.354Z,0.40
2023-03-13T04:02:02.349Z,0.17
2023-03-13T04:04:32.080Z,0.20
2023-03-13T04:07:05.793Z,0.50
2023-03-13T04:09:35.870Z,0.20
2023-03-13T04:12:06.577Z,0.40
2023-03-13T04:14:40.577Z,0.32
2023-03-13T04:17:11.926Z,0.25
2023-03-13T04:19:40.970Z,0.50
2023-03-13T04:22:09.578Z,0.70
2023-03-13T04:24:40.266Z,1.95
2023-03-13T04:27:09.920Z,0.90
2023-03-13T04:29:40.769Z,0.75
2023-03-13T04:32:35.187Z,0.95
2023-03-13T04:35:22.131Z,1.05
2023-03-13T04:38:17.299Z,0.38
2023-03-13T04:40:59.293Z,0.50
2023-03-13T04:43:50.643Z,0.60
2023-03-13T04:46:50.162Z,0.40
2023-03-13T04:49:33.524Z,0.80
2023-03-13T04:52:18.680Z,0.50
2023-03-13T04:54:51.229Z,0.30
2023-03-13T04:57:42.203Z,0.47
2023-03-13T05:00:23.214Z,0.30
2023-03-13T05:03:12.763Z,0.20
2023-03-13T05:06:10.219Z,0.20
2023-03-13T05:08:58.797Z,0.55
2023-03-13T05:11:50.739Z,0.20
2023-03-13T05:14:41.891Z,0.40
2023-03-13T05:17:28.770Z,0.88
2023-03-13T05:22:58.969Z,0.77
2023-03-13T05:25:47.537Z,0.30
2023-03-13T05:28:16.260Z,1.63
2023-03-13T05:30:51.027Z,1.42
2023-03-13T05:33:36.208Z,2.95
2023-03-13T05:36:32.125Z,1.67
2023-03-13T05:39:20.988Z,2.53
2023-03-13T05:44:44.227Z,3.75
2023-03-13T05:47:44.739Z,2.97
2023-03-13T05:50:36.178Z,3.75
2023-03-13T05:53:37.718Z,3.95
2023-03-13T05:56:20.320Z,4.88
2023-03-13T05:59:15.412Z,3.53
2023-03-13T06:01:59.789Z,3.63
2023-03-13T06:04:34.106Z,4.45
2023-03-13T06:07:03.301Z,2.70
2023-03-13T06:09:33.056Z,3.08
2023-03-13T06:12:01.497Z,2.90
2023-03-13T06:14:30.796Z,2.00
2023-03-13T06:17:25.618Z,2.65
2023-03-13T06:19:54.017Z,2.42
2023-03-13T06:22:22.323Z,2.20
2023-03-13T06:27:20.383Z,1.70
2023-03-13T06:32:17.378Z,1.00
2023-03-13T06:34:45.870Z,1.58
2023-03-13T06:37:14.581Z,1.52
2023-03-13T06:39:42.956Z,1.30
2023-03-13T06:42:12.880Z,1.00
2023-03-13T06:44:41.729Z,0.88
2023-03-13T06:47:10.129Z,2.25
2023-03-13T06:52:07.249Z,1.98
2023-03-13T06:54:35.720Z,2.17
2023-03-13T06:59:33.756Z,3.13
2023-03-13T07:02:02.418Z,4.15
2023-03-13T07:04:30.850Z,3.90
2023-03-13T07:11:55.630Z,5.22
2023-03-13T07:14:23.917Z,5.63
2023-03-13T07:16:53.978Z,5.07
2023-03-13T07:19:22.775Z,5.55
2023-03-13T07:21:52.591Z,5.05
2023-03-13T07:24:21.282Z,4.47
2023-03-13T07:27:04.661Z,6.18
2023-03-13T07:29:35.687Z,7.03
2023-03-13T07:32:06.301Z,6.13
2023-03-13T07:34:34.815Z,5.82
2023-03-13T07:39:31.168Z,5.40
2023-03-13T07:41:59.952Z,5.85
2023-03-13T07:44:28.378Z,5.57
2023-03-13T07:46:57.429Z,3.88
2023-03-13T07:49:28.514Z,7.20
2023-03-13T07:51:57.813Z,5.30
2023-03-13T07:54:26.816Z,6.10
2023-03-13T07:56:55.202Z,5.50
2023-03-13T07:59:23.738Z,5.45
2023-03-13T08:01:52.106Z,5.90
2023-03-13T08:04:20.463Z,5.60
2023-03-13T08:06:51.798Z,4.93
2023-03-13T08:09:20.401Z,7.90
2023-03-13T08:11:49.107Z,5.25
2023-03-13T08:14:17.410Z,5.30
2023-03-13T08:21:42.842Z,5.15
2023-03-13T08:24:13.659Z,4.72
2023-03-13T08:26:43.327Z,3.90
2023-03-13T08:29:13.283Z,4.93
2023-03-13T08:31:45.600Z,3.58
2023-03-13T08:34:14.943Z,3.30
2023-03-13T08:36:44.040Z,3.72
2023-03-13T08:39:15.544Z,3.00
2023-03-13T08:41:44.194Z,2.55
2023-03-13T08:44:15.144Z,3.85
2023-03-13T08:46:44.123Z,2.80
2023-03-13T08:49:13.776Z,2.70
2023-03-13T08:51:42.137Z,2.28
2023-03-13T08:54:10.623Z,2.35
2023-03-13T08:56:41.094Z,3.13
2023-03-13T08:59:09.524Z,2.08
2023-03-13T09:04:07.646Z,2.40
2023-03-13T09:06:37.744Z,2.08
2023-03-13T09:09:07.732Z,2.38
2023-03-13T09:11:37.570Z,1.92
2023-03-13T09:14:08.731Z,1.17
2023-03-13T09:16:37.576Z,1.00
2023-03-13T09:19:06.162Z,0.70
2023-03-13T09:24:04.050Z,0.73
2023-03-13T09:26:32.684Z,1.02
2023-03-13T09:29:01.298Z,1.35
2023-03-13T09:31:32.513Z,1.30
2023-03-13T09:34:01.987Z,1.00
2023-03-13T09:36:30.633Z,0.40
2023-03-13T09:39:01.101Z,0.60
2023-03-13T09:41:36.049Z,1.15
2023-03-13T09:44:14.483Z,0.45
2023-03-13T09:46:49.408Z,0.40
2023-03-13T09:49:29.774Z,0.43
2023-03-13T09:52:06.423Z,0.28
2023-03-13T09:54:40.938Z,0.30
2023-03-13T09:57:17.708Z,0.30
2023-03-13T09:59:53.715Z,0.10
2023-03-13T10:02:29.862Z,0.20
2023-03-13T10:05:06.527Z,0.13
2023-03-13T10:07:34.854Z,0.10
2023-03-13T10:10:06.714Z,0.10
2023-03-13T10:12:42.788Z,0.10
2023-03-13T10:15:29.525Z,0.38
2023-03-13T10:18:03.859Z,0.25
2023-03-13T10:20:36.232Z,0.40
2023-03-13T10:23:09.053Z,0.45
2023-03-13T10:25:40.075Z,0.00
2023-03-13T10:28:13.240Z,0.20
2023-03-13T10:30:47.649Z,0.05
2023-03-13T10:33:27.344Z,0.10
2023-03-13T10:36:16.813Z,0.08
2023-03-13T10:38:51.856Z,0.20
2023-03-13T10:41:26.852Z,0.10
2023-03-13T10:43:57.062Z,0.10
2023-03-13T10:46:27.117Z,0.52
2023-03-13T10:48:58.410Z,0.20
2023-03-13T10:51:35.903Z,0.30
2023-03-13T10:54:15.631Z,0.50
2023-03-13T10:56:44.177Z,0.50
2023-03-13T11:01:53.225Z,0.40
2023-03-13T11:04:31.860Z,0.45
2023-03-13T11:07:04.517Z,1.10
2023-03-13T11:09:33.486Z,0.90
2023-03-13T11:12:05.999Z,0.85
2023-03-13T11:14:36.075Z,0.50
2023-03-13T11:17:11.048Z,0.45
2023-03-13T11:20:09.634Z,0.70
2023-03-13T11:22:48.961Z,0.80
2023-03-13T11:25:33.598Z,0.80
2023-03-13T11:28:29.417Z,1.23
2023-03-13T11:31:15.028Z,1.42
2023-03-13T11:33:53.661Z,1.60
2023-03-13T11:36:28.869Z,1.35
2023-03-13T11:39:08.561Z,1.08
2023-03-13T11:41:49.749Z,1.25
2023-03-13T11:44:30.840Z,1.80
2023-03-13T11:47:25.070Z,1.38
2023-03-13T11:50:05.005Z,0.95
2023-03-13T11:52:48.081Z,1.83
2023-03-13T11:55:31.508Z,1.42
2023-03-13T11:58:19.291Z,1.75
2023-03-13T12:00:51.940Z,1.58
2023-03-13T12:03:25.169Z,1.52
2023-03-13T12:05:56.828Z,2.30
2023-03-13T12:08:31.377Z,2.38
2023-03-13T12:11:11.366Z,1.73
2023-03-13T12:13:42.809Z,1.00
2023-03-13T12:16:21.773Z,1.42
2023-03-13T12:18:54.127Z,1.63
2023-03-13T12:21:29.761Z,1.17
2023-03-13T12:24:11.760Z,1.17
2023-03-13T12:26:45.967Z,1.83
2023-03-13T12:29:18.745Z,1.23
2023-03-13T12:31:55.098Z,0.70
2023-03-13T12:34:28.989Z,0.80
2023-03-13T12:37:06.951Z,0.43
2023-03-13T12:39:44.318Z,1.00
2023-03-13T12:42:31.495Z,0.37
2023-03-13T12:45:00.996Z,0.30
2023-03-13T12:47:33.885Z,0.13
2023-03-13T12:50:21.203Z,0.30
2023-03-13T12:53:07.841Z,0.20
2023-03-13T12:55:56.422Z,0.20
2023-03-13T12:58:31.361Z,0.20
2023-03-13T13:01:05.361Z,0.30
2023-03-13T13:03:38.182Z,0.40
2023-03-13T13:06:09.740Z,0.40
2023-03-13T13:08:41.983Z,0.22
2023-03-13T13:11:48.617Z,0.52
2023-03-13T13:15:07.655Z,0.30
2023-03-13T13:17:51.110Z,0.82
2023-03-13T13:20:32.272Z,0.30
2023-03-13T13:23:26.982Z,0.20
2023-03-13T13:25:57.323Z,0.95
2023-03-13T13:28:35.176Z,0.50
2023-03-13T13:31:23.945Z,0.20
2023-03-13T13:33:52.803Z,0.40
2023-03-13T13:36:32.289Z,0.80
2023-03-13T13:39:00.834Z,0.65
2023-03-13T13:46:54.908Z,0.47
2023-03-13T13:49:24.564Z,1.05
2023-03-13T13:52:32.426Z,0.45
2023-03-13T13:55:01.087Z,0.60
2023-03-13T13:57:33.834Z,0.55
2023-03-13T14:00:18.094Z,0.32
2023-03-13T14:02:51.797Z,0.80
2023-03-13T14:05:23.344Z,0.77
2023-03-13T14:07:58.633Z,1.67
2023-03-13T14:10:36.757Z,1.70
2023-03-13T14:13:13.530Z,1.98
2023-03-13T14:15:48.411Z,1.55
2023-03-13T14:18:24.182Z,0.90
2023-03-13T14:21:01.481Z,0.80
2023-03-13T14:23:40.117Z,1.63
2023-03-13T14:26:14.936Z,1.40
2023-03-13T14:28:46.504Z,1.02
2023-03-13T14:31:25.653Z,1.05
2023-03-13T14:33:54.240Z,1.83
2023-03-13T14:36:22.601Z,1.55
2023-03-13T14:41:26.811Z,1.92
2023-03-13T14:43:56.734Z,1.13
2023-03-13T14:46:32.235Z,1.05
2023-03-13T14:49:09.760Z,0.65
2023-03-13T14:51:41.154Z,0.83
2023-03-13T14:54:26.772Z,0.93
2023-03-13T14:57:06.345Z,0.60
2023-03-13T14:59:34.783Z,1.25
2023-03-13T15:02:15.608Z,2.67
2023-03-13T15:04:56.201Z,0.95
2023-03-13T15:07:25.241Z,2.03
2023-03-13T15:09:54.245Z,2.42
2023-03-13T15:12:24.707Z,1.10
2023-03-13T15:14:54.125Z,1.70
2023-03-13T15:17:26.086Z,1.85
2023-03-13T15:19:55.757Z,2.17
2023-03-13T15:22:29.358Z,1.75
2023-03-13T15:25:07.153Z,1.13
2023-03-13T15:27:36.650Z,1.45
2023-03-13T15:30:06.009Z,0.82
2023-03-13T15:32:38.518Z,0.93
2023-03-13T15:35:29.809Z,0.73
2023-03-13T15:37:59.553Z,0.68
2023-03-13T15:40:28.805Z,1.25
2023-03-13T15:42:57.444Z,0.93
2023-03-13T15:45:26.167Z,0.73
2023-03-13T15:47:56.132Z,0.57
2023-03-13T15:50:29.808Z,0.55
2023-03-13T15:53:00.831Z,1.25
2023-03-13T15:55:30.875Z,2.17
2023-03-13T15:57:59.351Z,2.05
2023-03-13T16:02:57.603Z,4.80
2023-03-13T16:05:25.920Z,1.30
2023-03-13T16:07:54.701Z,1.48
2023-03-13T16:10:25.876Z,2.83
2023-03-13T16:12:54.321Z,1.55
2023-03-13T16:22:53.457Z,1.88
2023-03-13T16:25:22.477Z,1.48
2023-03-13T16:27:51.300Z,1.20
2023-03-13T16:30:23.604Z,1.77
2023-03-13T16:32:52.542Z,2.53
2023-03-13T16:35:22.897Z,2.17
2023-03-13T16:37:52.192Z,2.03
2023-03-13T16:40:22.677Z,2.33
2023-03-13T16:42:51.011Z,1.40
2023-03-13T16:45:19.902Z,1.08
2023-03-13T16:47:48.722Z,2.28
2023-03-13T16:50:26.033Z,1.23
2023-03-13T16:52:56.736Z,1.73
2023-03-13T16:55:28.748Z,2.00
2023-03-13T16:57:58.017Z,2.70
2023-03-13T17:00:29.026Z,4.25
2023-03-13T17:02:58.310Z,3.53
2023-03-13T17:05:29.089Z,3.75
2023-03-13T17:07:57.772Z,3.60
2023-03-13T17:10:28.584Z,4.88
2023-03-13T17:12:57.788Z,4.97
2023-03-13T17:15:27.766Z,2.83
2023-03-13T17:17:57.622Z,7.05
2023-03-13T17:20:29.659Z,2.35
2023-03-13T17:22:58.717Z,2.58
2023-03-13T17:25:27.202Z,1.73
2023-03-13T17:32:53.462Z,11.93
2023-03-13T17:35:22.401Z,17.70
2023-03-13T17:37:52.239Z,10.00
2023-03-13T17:40:22.508Z,11.90
2023-03-13T17:42:51.206Z,3.58
2023-03-13T17:45:20.566Z,3.60
2023-03-13T17:47:50.661Z,3.38
2023-03-13T17:50:21.048Z,4.63
2023-03-13T17:52:49.628Z,3.83
2023-03-13T17:55:19.804Z,1.45
2023-03-13T17:57:48.974Z,1.65
2023-03-13T18:00:29.152Z,1.77
2023-03-13T18:02:58.687Z,2.08
2023-03-13T18:05:27.302Z,1.30
2023-03-13T18:07:57.067Z,2.75
2023-03-13T18:10:28.988Z,1.77
2023-03-13T18:12:57.669Z,2.25
2023-03-13T18:15:27.682Z,0.95
2023-03-13T18:17:56.140Z,1.48
2023-03-13T18:22:59.562Z,1.80
2023-03-13T18:25:30.957Z,1.45
2023-03-13T18:27:59.595Z,1.25
2023-03-13T18:30:28.867Z,1.65
2023-03-13T18:32:57.419Z,1.60
2023-03-13T18:35:25.921Z,2.67
2023-03-13T18:42:53.792Z,1.88
2023-03-13T18:45:24.765Z,2.40
2023-03-13T18:47:53.890Z,2.60
2023-03-13T18:50:26.543Z,2.63
2023-03-13T18:52:56.133Z,2.53
2023-03-13T18:55:25.993Z,2.72
2023-03-13T18:57:56.762Z,3.20
2023-03-13T19:00:27.089Z,4.40
2023-03-13T19:02:55.589Z,6.57
2023-03-13T19:05:24.659Z,4.78
2023-03-13T19:07:53.199Z,4.57
2023-03-13T19:10:28.673Z,4.68
2023-03-13T19:13:06.405Z,4.57
2023-03-13T19:15:42.067Z,4.20
2023-03-13T19:18:17.179Z,8.07
2023-03-13T19:20:46.619Z,10.93
2023-03-13T19:23:15.036Z,13.45
2023-03-13T19:25:48.774Z,10.40
2023-03-13T19:28:24.455Z,6.13
2023-03-13T19:30:59.702Z,7.75
2023-03-13T19:33:36.151Z,4.63
2023-03-13T19:36:18.692Z,3.35
2023-03-13T19:38:48.164Z,1.85
2023-03-13T19:41:23.633Z,2.92
2023-03-13T19:43:54.971Z,2.28
2023-03-13T19:46:25.905Z,3.50
2023-03-13T19:49:02.839Z,4.50
2023-03-13T19:51:33.024Z,3.72
2023-03-13T19:54:04.826Z,3.10
2023-03-13T19:56:35.024Z,2.90
2023-03-13T19:59:13.383Z,3.00
2023-03-13T20:01:47.745Z,2.38
2023-03-13T20:04:21.666Z,2.90
2023-03-13T20:06:55.834Z,3.17
2023-03-13T20:09:27.802Z,3.80
2023-03-13T20:11:57.854Z,3.97
2023-03-13T20:17:00.415Z,3.85
2023-03-13T20:22:06.816Z,5.65
2023-03-13T20:24:51.879Z,5.95
2023-03-13T20:27:28.922Z,6.43
2023-03-13T20:30:02.337Z,6.77
2023-03-13T20:32:37.793Z,4.10
2023-03-13T20:35:15.860Z,4.30
2023-03-13T20:37:45.166Z,3.53
2023-03-13T20:40:14.823Z,4.05
2023-03-13T20:42:43.245Z,3.78
2023-03-13T20:45:13.367Z,3.92
2023-03-13T20:47:41.913Z,4.65
2023-03-13T20:50:12.947Z,2.45
2023-03-13T20:52:41.793Z,3.10
2023-03-13T20:55:11.605Z,4.93
2023-03-13T20:57:40.346Z,3.88
2023-03-13T21:00:12.380Z,3.72
2023-03-13T21:02:42.906Z,2.40
2023-03-13T21:05:12.429Z,3.10
2023-03-13T21:07:41.728Z,2.47
2023-03-13T21:10:12.013Z,3.38
2023-03-13T21:12:42.655Z,2.25
2023-03-13T21:15:13.762Z,3.38
2023-03-13T21:17:45.008Z,4.55
2023-03-13T21:20:14.180Z,3.65
2023-03-13T21:22:44.581Z,3.65
2023-03-13T21:25:14.131Z,3.75
2023-03-13T21:27:44.221Z,4.50
2023-03-13T21:30:16.036Z,2.35
2023-03-13T21:32:47.037Z,3.60
2023-03-13T21:35:17.735Z,2.55
2023-03-13T21:37:46.772Z,4.28
2023-03-13T21:40:15.470Z,1.60
2023-03-13T21:42:43.840Z,1.65
2023-03-13T21:47:43.237Z,2.10
2023-03-13T21:50:14.893Z,1.42
2023-03-13T21:52:45.691Z,2.20
2023-03-13T21:55:14.799Z,2.53
2023-03-13T21:57:46.762Z,2.55
2023-03-13T22:00:16.830Z,1.70
2023-03-13T22:02:45.299Z,1.40
2023-03-13T22:05:15.766Z,1.80
2023-03-13T22:07:45.683Z,1.38
2023-03-13T22:10:14.279Z,1.67
2023-03-13T22:12:42.815Z,1.40
2023-03-13T22:15:14.127Z,2.13
2023-03-13T22:17:44.027Z,1.33
2023-03-13T22:20:15.476Z,2.38
2023-03-13T22:22:44.154Z,2.05
2023-03-13T22:25:13.796Z,1.98
2023-03-13T22:27:42.376Z,1.70
2023-03-13T22:30:12.963Z,1.83
2023-03-13T22:32:41.884Z,2.38
2023-03-13T22:35:11.220Z,2.25
2023-03-13T22:37:41.464Z,1.40
2023-03-13T22:40:13.322Z,1.85
2023-03-13T22:42:42.128Z,1.23
2023-03-13T22:45:11.436Z,1.40
2023-03-13T22:47:40.362Z,1.48
2023-03-13T22:50:11.155Z,1.25
2023-03-13T22:52:41.035Z,1.75
2023-03-13T22:55:11.210Z,2.55
2023-03-13T22:57:40.094Z,1.92
2023-03-13T23:00:10.879Z,1.67
2023-03-13T23:02:39.287Z,2.80
2023-03-13T23:05:08.436Z,1.20
2023-03-13T23:07:40.567Z,1.65
2023-03-13T23:10:13.053Z,1.30
2023-03-13T23:12:42.310Z,1.17
2023-03-13T23:15:12.804Z,1.05
2023-03-13T23:17:41.887Z,1.55
2023-03-13T23:20:13.355Z,1.17
2023-03-13T23:22:42.880Z,0.98
2023-03-13T23:25:14.469Z,0.70
2023-03-13T23:27:43.707Z,1.15
2023-03-13T23:30:15.371Z,0.63
2023-03-13T23:32:45.518Z,0.75
2023-03-13T23:35:16.899Z,1.10
2023-03-13T23:37:49.483Z,1.77
2023-03-13T23:40:19.779Z,1.15
2023-03-13T23:42:50.212Z,1.30
2023-03-13T23:45:20.077Z,1.17
2023-03-13T23:47:48.896Z,1.48
2023-03-13T23:50:17.654Z,0.82
2023-03-13T23:52:46.397Z,1.38
2023-03-13T23:55:15.613Z,0.85
2023-03-13T23:57:49.343Z,0.88
